createdAt,value
2019-01-08T00:01:47.357Z,45.13
2019-01-08T00:04:19.043Z,47.53
2019-01-08T00:06:51.398Z,45.63
2019-01-08T00:09:22.876Z,46.87
2019-01-08T00:11:54.395Z,46.57
2019-01-08T00:14:26.211Z,43.93
2019-01-08T00:16:57.840Z,42.20
2019-01-08T00:19:29.379Z,42.53
2019-01-08T00:22:00.775Z,44.40
2019-01-08T00:24:32.425Z,44.23
2019-01-08T00:27:03.696Z,42.70
2019-01-08T00:29:35.049Z,45.17
2019-01-08T00:32:07.205Z,42.90
2019-01-08T00:34:39.067Z,42.33
2019-01-08T00:37:10.473Z,42.17
2019-01-08T00:39:41.922Z,43.27
2019-01-08T00:42:13.594Z,48.87
2019-01-08T00:44:45.433Z,46.23
2019-01-08T00:47:16.786Z,38.87
2019-01-08T00:49:48.226Z,42.80
2019-01-08T00:52:19.652Z,43.23
2019-01-08T00:54:51.441Z,36.90
2019-01-08T00:57:23.018Z,42.37
2019-01-08T00:59:54.663Z,44.23
2019-01-08T01:02:26.751Z,41.50
2019-01-08T01:04:58.167Z,43.53
2019-01-08T01:07:29.747Z,41.67
2019-01-08T01:10:02.328Z,41.43
2019-01-08T01:12:39.316Z,39.07
2019-01-08T01:15:10.803Z,41.53
2019-01-08T01:17:42.213Z,41.17
2019-01-08T01:20:13.994Z,41.87
2019-01-08T01:22:46.122Z,37.33
2019-01-08T01:25:17.520Z,39.40
2019-01-08T01:27:48.964Z,37.93
2019-01-08T01:30:20.568Z,41.03
2019-01-08T01:32:52.839Z,37.63
2019-01-08T01:35:24.244Z,37.60
2019-01-08T01:37:55.572Z,39.17
2019-01-08T01:40:26.842Z,36.20
2019-01-08T01:43:01.130Z,39.40
2019-01-08T01:45:32.671Z,35.73
2019-01-08T01:48:05.066Z,31.73
2019-01-08T01:50:36.763Z,37.63
2019-01-08T01:53:13.498Z,33.20
2019-01-08T01:55:45.854Z,35.80
2019-01-08T01:58:17.336Z,34.80
2019-01-08T02:00:48.928Z,35.43
2019-01-08T02:03:20.508Z,33.87
2019-01-08T02:05:52.425Z,35.47
2019-01-08T02:08:23.801Z,38.07
2019-01-08T02:10:55.024Z,33.60
2019-01-08T02:13:26.724Z,30.80
2019-01-08T02:15:58.291Z,32.80
2019-01-08T02:18:30.247Z,30.60
2019-01-08T02:21:01.725Z,32.10
2019-01-08T02:23:33.331Z,29.67
2019-01-08T02:26:05.269Z,27.07
2019-01-08T02:28:36.745Z,27.53
2019-01-08T02:31:08.212Z,30.77
2019-01-08T02:33:40.090Z,27.60
2019-01-08T02:36:11.792Z,24.03
2019-01-08T02:38:43.378Z,22.27
2019-01-08T02:41:14.910Z,25.50
2019-01-08T02:43:52.065Z,26.73
2019-01-08T02:46:23.610Z,26.50
2019-01-08T02:48:55.013Z,22.43
2019-01-08T02:51:26.438Z,23.20
2019-01-08T02:53:57.785Z,21.93
2019-01-08T02:56:29.245Z,19.73
2019-01-08T02:59:00.827Z,23.93
2019-01-08T03:01:32.081Z,19.83
2019-01-08T03:04:03.889Z,20.67
2019-01-08T03:06:35.487Z,23.03
2019-01-08T03:09:07.662Z,18.50
2019-01-08T03:11:39.053Z,20.77
2019-01-08T03:14:10.748Z,19.73
2019-01-08T03:16:42.088Z,19.57
2019-01-08T03:19:14.710Z,18.33
2019-01-08T03:21:46.546Z,16.60
2019-01-08T03:24:18.282Z,14.67
2019-01-08T03:26:49.522Z,17.00
2019-01-08T03:29:20.879Z,17.33
2019-01-08T03:31:52.695Z,16.63
2019-01-08T03:34:24.377Z,21.80
2019-01-08T03:36:55.684Z,15.77
2019-01-08T03:39:27.247Z,17.07
2019-01-08T03:41:58.711Z,14.57
2019-01-08T03:44:29.925Z,15.77
2019-01-08T03:47:03.044Z,13.27
2019-01-08T03:49:34.415Z,18.17
2019-01-08T03:52:05.898Z,17.87
2019-01-08T03:54:37.838Z,19.97
2019-01-08T03:57:09.378Z,16.67
2019-01-08T03:59:42.072Z,21.20
2019-01-08T04:02:13.784Z,15.33
2019-01-08T04:04:45.344Z,17.73
2019-01-08T04:07:16.960Z,14.90
2019-01-08T04:09:48.330Z,15.57
2019-01-08T04:12:20.146Z,12.73
2019-01-08T04:14:51.639Z,10.17
2019-01-08T04:17:23.128Z,13.60
2019-01-08T04:19:54.741Z,15.90
2019-01-08T04:22:27.283Z,13.70
2019-01-08T04:24:58.989Z,12.57
2019-01-08T04:27:30.879Z,12.73
2019-01-08T04:30:02.768Z,10.63
2019-01-08T04:32:34.962Z,11.70
2019-01-08T04:35:06.333Z,11.07
2019-01-08T04:37:37.591Z,11.33
2019-01-08T04:40:09.079Z,11.07
2019-01-08T04:42:46.108Z,11.57
2019-01-08T04:45:17.455Z,10.57
2019-01-08T04:47:48.932Z,10.40
2019-01-08T04:50:20.497Z,11.47
2019-01-08T04:52:57.138Z,9.50
2019-01-08T04:55:28.605Z,7.27
2019-01-08T04:58:00.127Z,7.93
2019-01-08T05:00:31.859Z,9.43
2019-01-08T05:03:08.662Z,7.60
2019-01-08T05:05:40.168Z,10.83
2019-01-08T05:08:12.047Z,7.17
2019-01-08T05:10:43.435Z,8.30
2019-01-08T05:13:20.418Z,7.03
2019-01-08T05:15:52.187Z,7.33
2019-01-08T05:18:23.834Z,8.17
2019-01-08T05:20:55.184Z,7.27
2019-01-08T05:23:26.732Z,9.00
2019-01-08T05:25:58.952Z,8.13
2019-01-08T05:28:30.216Z,7.87
2019-01-08T05:31:01.943Z,8.97
2019-01-08T05:33:33.516Z,7.93
2019-01-08T05:36:05.237Z,10.83
2019-01-08T05:38:38.291Z,7.07
2019-01-08T05:41:09.777Z,7.00
2019-01-08T05:43:41.691Z,8.10
2019-01-08T05:46:13.493Z,7.93
2019-01-08T05:48:45.141Z,6.90
2019-01-08T05:51:16.778Z,6.93
2019-01-08T05:53:49.090Z,6.60
2019-01-08T05:56:20.763Z,6.73
2019-01-08T05:58:52.575Z,6.33
2019-01-08T06:01:24.398Z,7.37
2019-01-08T06:04:01.804Z,6.60
2019-01-08T06:06:33.105Z,7.40
2019-01-08T06:09:05.395Z,7.83
2019-01-08T06:11:37.226Z,7.00
2019-01-08T06:14:09.037Z,8.00
2019-01-08T06:16:40.466Z,9.33
2019-01-08T06:19:12.452Z,6.57
2019-01-08T06:21:43.923Z,6.10
2019-01-08T06:24:15.421Z,6.47
2019-01-08T06:26:46.965Z,7.67
2019-01-08T06:29:18.487Z,9.73
2019-01-08T06:31:50.182Z,7.23
2019-01-08T06:34:21.948Z,8.00
2019-01-08T06:36:53.864Z,6.83
2019-01-08T06:39:25.376Z,8.60
2019-01-08T06:41:56.852Z,7.60
2019-01-08T06:44:28.652Z,9.27
2019-01-08T06:47:00.219Z,10.65
2019-01-08T06:49:31.714Z,10.00
2019-01-08T06:52:03.265Z,9.80
2019-01-08T06:54:34.793Z,9.40
2019-01-08T06:57:06.391Z,10.23
2019-01-08T06:59:38.689Z,11.57
2019-01-08T07:02:10.049Z,11.30
2019-01-08T07:04:41.617Z,10.23
2019-01-08T07:07:13.249Z,9.83
2019-01-08T07:09:45.146Z,14.47
2019-01-08T07:12:16.664Z,14.07
2019-01-08T07:14:48.132Z,13.53
2019-01-08T07:17:19.954Z,12.13
2019-01-08T07:19:52.583Z,12.83
2019-01-08T07:22:24.506Z,13.13
2019-01-08T07:24:56.080Z,13.10
2019-01-08T07:27:27.638Z,14.07
2019-01-08T07:29:59.391Z,15.57
2019-01-08T07:32:35.977Z,14.50
2019-01-08T07:35:07.449Z,20.97
2019-01-08T07:37:38.861Z,15.73
2019-01-08T07:40:10.592Z,17.67
2019-01-08T07:42:42.075Z,17.03
2019-01-08T07:45:13.749Z,19.87
2019-01-08T07:47:45.582Z,22.00
2019-01-08T07:50:16.991Z,18.57
2019-01-08T07:52:53.173Z,18.90
2019-01-08T07:55:24.778Z,20.70
2019-01-08T07:57:56.107Z,18.20
2019-01-08T08:00:27.445Z,18.53
2019-01-08T08:02:58.921Z,20.10
2019-01-08T08:05:30.307Z,17.07
2019-01-08T08:08:01.919Z,20.63
2019-01-08T08:10:33.286Z,18.27
2019-01-08T08:13:05.185Z,19.20
2019-01-08T08:15:36.595Z,28.13
2019-01-08T08:18:08.217Z,19.97
2019-01-08T08:20:39.531Z,19.70
2019-01-08T08:23:11.283Z,19.97
2019-01-08T08:25:43.064Z,21.73
2019-01-08T08:28:14.637Z,20.60
2019-01-08T08:30:46.632Z,18.73
2019-01-08T08:33:18.187Z,16.07
2019-01-08T08:35:49.582Z,18.77
2019-01-08T08:38:20.972Z,20.40
2019-01-08T08:40:52.672Z,20.30
2019-01-08T08:43:24.301Z,18.17
2019-01-08T08:45:55.692Z,19.57
2019-01-08T08:48:27.098Z,21.00
2019-01-08T08:50:58.483Z,19.37
2019-01-08T08:53:29.818Z,19.77
2019-01-08T08:56:01.353Z,20.33
2019-01-08T08:58:32.965Z,20.70
2019-01-08T09:01:07.115Z,24.63
2019-01-08T09:03:37.299Z,23.90
2019-01-08T09:06:08.679Z,21.50
2019-01-08T09:08:40.041Z,21.63
2019-01-08T09:11:11.284Z,22.00
2019-01-08T09:13:43.145Z,23.40
2019-01-08T09:16:14.494Z,23.50
2019-01-08T09:18:46.379Z,22.30
2019-01-08T09:21:17.665Z,22.73
2019-01-08T09:23:49.383Z,22.70
2019-01-08T09:26:21.007Z,23.00
2019-01-08T09:28:52.695Z,29.97
2019-01-08T09:31:24.310Z,25.87
2019-01-08T09:33:55.683Z,24.50
2019-01-08T09:36:27.063Z,24.77
2019-01-08T09:38:58.442Z,26.40
2019-01-08T09:41:29.691Z,24.57
2019-01-08T09:44:01.566Z,27.20
2019-01-08T09:46:33.160Z,27.10
2019-01-08T09:49:05.532Z,30.87
2019-01-08T09:51:36.937Z,30.50
2019-01-08T09:54:08.792Z,31.93
2019-01-08T09:56:40.282Z,30.77
2019-01-08T09:59:11.741Z,24.87
2019-01-08T10:01:43.512Z,28.40
2019-01-08T10:04:15.197Z,26.10
2019-01-08T10:06:48.311Z,23.37
2019-01-08T10:09:19.943Z,23.53
2019-01-08T10:11:51.907Z,22.13
2019-01-08T10:14:23.368Z,21.83
2019-01-08T10:16:55.117Z,25.60
2019-01-08T10:19:26.395Z,23.20
2019-01-08T10:21:57.960Z,23.47
2019-01-08T10:24:29.722Z,22.23
2019-01-08T10:27:01.059Z,22.20
2019-01-08T10:29:33.749Z,22.37
2019-01-08T10:32:05.142Z,21.33
2019-01-08T10:34:36.473Z,22.23
2019-01-08T10:37:07.892Z,15.20
2019-01-08T10:39:39.320Z,21.00
2019-01-08T10:42:10.799Z,19.90
2019-01-08T10:44:42.674Z,17.10
2019-01-08T10:47:14.286Z,17.43
2019-01-08T10:49:46.397Z,20.53
2019-01-08T10:52:18.111Z,20.27
2019-01-08T10:54:49.636Z,16.37
2019-01-08T10:57:21.241Z,16.70
2019-01-08T10:59:53.174Z,19.60
2019-01-08T11:02:24.547Z,17.83
2019-01-08T11:04:55.838Z,17.67
2019-01-08T11:07:27.386Z,16.60
2019-01-08T11:09:58.760Z,16.37
2019-01-08T11:12:30.132Z,18.27
2019-01-08T11:15:01.589Z,17.47
2019-01-08T11:17:33.276Z,18.97
2019-01-08T11:20:04.859Z,18.60
2019-01-08T11:22:36.541Z,18.17
2019-01-08T11:25:08.021Z,18.00
2019-01-08T11:27:39.572Z,20.57
2019-01-08T11:30:11.074Z,17.93
2019-01-08T11:32:42.581Z,18.50
2019-01-08T11:35:13.955Z,17.00
2019-01-08T11:37:45.718Z,19.33
2019-01-08T11:40:17.511Z,15.77
2019-01-08T11:42:54.796Z,18.77
2019-01-08T11:45:26.442Z,14.93
2019-01-08T11:48:03.853Z,18.73
2019-01-08T11:50:31.119Z,19.13
2019-01-08T11:53:02.464Z,18.87
2019-01-08T11:55:33.750Z,19.33
2019-01-08T11:58:05.085Z,22.93
2019-01-08T12:00:36.706Z,19.33
2019-01-08T12:03:13.621Z,17.37
2019-01-08T12:05:45.447Z,20.87
2019-01-08T12:08:16.809Z,19.63
2019-01-08T12:10:48.614Z,23.47
2019-01-08T12:13:20.640Z,20.50
2019-01-08T12:15:52.408Z,22.07
2019-01-08T12:18:23.898Z,25.43
2019-01-08T12:20:55.410Z,21.70
2019-01-08T12:23:26.894Z,20.40
2019-01-08T12:25:58.508Z,21.73
2019-01-08T12:28:30.138Z,23.30
2019-01-08T12:31:01.498Z,21.87
2019-01-08T12:33:33.077Z,22.43
2019-01-08T12:36:04.516Z,23.47
2019-01-08T12:38:35.936Z,23.13
2019-01-08T12:41:07.558Z,21.03
2019-01-08T12:43:39.153Z,19.20
2019-01-08T12:46:10.809Z,19.87
2019-01-08T12:48:42.117Z,23.13
2019-01-08T12:51:13.764Z,18.83
2019-01-08T12:53:45.609Z,18.87
2019-01-08T12:56:18.538Z,16.97
2019-01-08T12:58:51.692Z,17.33
2019-01-08T13:01:23.000Z,19.10
2019-01-08T13:03:59.666Z,19.80
2019-01-08T13:06:31.218Z,19.90
2019-01-08T13:09:02.916Z,19.03
2019-01-08T13:11:35.592Z,19.40
2019-01-08T13:14:12.140Z,19.63
2019-01-08T13:16:44.495Z,18.53
2019-01-08T13:19:15.947Z,21.80
2019-01-08T13:21:47.656Z,23.13
2019-01-08T13:24:19.260Z,19.57
2019-01-08T13:26:50.829Z,21.47
2019-01-08T13:29:22.179Z,18.77
2019-01-08T13:31:53.495Z,22.90
2019-01-08T13:34:24.936Z,20.97
2019-01-08T13:36:56.647Z,20.33
2019-01-08T13:39:28.419Z,20.63
2019-01-08T13:41:59.730Z,17.63
2019-01-08T13:44:31.516Z,19.47
2019-01-08T13:47:03.365Z,20.97
2019-01-08T13:49:34.837Z,21.60
2019-01-08T13:52:06.479Z,19.03
2019-01-08T13:54:37.992Z,17.60
2019-01-08T13:57:09.377Z,20.20
2019-01-08T13:59:40.627Z,24.23
2019-01-08T14:02:12.597Z,21.60
2019-01-08T14:04:44.202Z,24.27
2019-01-08T14:07:15.623Z,24.90
2019-01-08T14:09:47.082Z,22.27
2019-01-08T14:12:18.727Z,24.07
2019-01-08T14:14:50.048Z,25.17
2019-01-08T14:17:21.569Z,23.17
2019-01-08T14:19:53.604Z,24.23
2019-01-08T14:22:25.283Z,24.23
2019-01-08T14:24:56.588Z,29.53
2019-01-08T14:27:27.964Z,28.37
2019-01-08T14:29:59.353Z,29.30
2019-01-08T14:32:31.023Z,31.80
2019-01-08T14:35:02.313Z,29.70
2019-01-08T14:37:34.866Z,32.33
2019-01-08T14:40:06.717Z,34.80
2019-01-08T14:42:38.620Z,33.50
2019-01-08T14:45:10.405Z,34.67
2019-01-08T14:47:43.440Z,37.57
2019-01-08T14:50:15.075Z,39.80
2019-01-08T14:52:48.525Z,38.20
2019-01-08T14:55:19.774Z,38.03
2019-01-08T14:57:51.413Z,38.97
2019-01-08T15:00:22.654Z,45.63
2019-01-08T15:02:59.249Z,44.73
2019-01-08T15:05:30.537Z,45.50
2019-01-08T15:08:01.909Z,44.73
2019-01-08T15:10:33.343Z,48.33
2019-01-08T15:13:04.846Z,43.83
2019-01-08T15:15:36.293Z,47.13
2019-01-08T15:18:07.912Z,44.63
2019-01-08T15:20:39.216Z,49.87
2019-01-08T15:23:10.953Z,45.43
2019-01-08T15:25:42.672Z,46.43
2019-01-08T15:28:14.310Z,44.60
2019-01-08T15:30:46.218Z,45.90
2019-01-08T15:33:17.839Z,57.03
2019-01-08T15:35:49.620Z,60.73
2019-01-08T15:38:21.570Z,71.40
2019-01-08T15:40:53.073Z,69.03
2019-01-08T15:43:24.620Z,68.43
2019-01-08T15:45:55.890Z,65.43
2019-01-08T15:48:27.742Z,66.70
2019-01-08T15:50:59.842Z,68.00
2019-01-08T15:53:32.260Z,67.37
2019-01-08T15:56:04.311Z,58.77
2019-01-08T15:58:35.598Z,63.27
2019-01-08T16:01:06.999Z,63.17
2019-01-08T16:03:38.447Z,59.93
2019-01-08T16:06:10.031Z,64.40
2019-01-08T16:08:41.497Z,58.60
2019-01-08T16:11:12.965Z,62.27
2019-01-08T16:13:44.719Z,64.63
2019-01-08T16:16:16.121Z,69.57
2019-01-08T16:18:47.683Z,70.37
2019-01-08T16:21:19.272Z,70.32
2019-01-08T16:23:51.326Z,74.90
2019-01-08T16:26:22.900Z,76.23
2019-01-08T16:28:54.545Z,72.70
2019-01-08T16:31:26.288Z,72.67
2019-01-08T16:33:58.949Z,77.90
2019-01-08T16:36:30.223Z,71.03
2019-01-08T16:39:01.921Z,75.47
2019-01-08T16:41:34.399Z,81.00
2019-01-08T16:44:06.185Z,78.23
2019-01-08T16:46:37.613Z,82.07
2019-01-08T16:49:08.948Z,77.03
2019-01-08T16:51:40.422Z,75.70
2019-01-08T16:54:13.042Z,81.47
2019-01-08T16:56:44.649Z,88.83
2019-01-08T16:59:17.290Z,86.70
2019-01-08T17:01:48.531Z,86.00
2019-01-08T17:04:20.486Z,94.07
2019-01-08T17:06:52.041Z,92.03
2019-01-08T17:09:23.630Z,90.03
2019-01-08T17:11:55.098Z,95.60
2019-01-08T17:14:26.918Z,87.70
2019-01-08T17:16:58.342Z,95.83
2019-01-08T17:19:29.619Z,96.43
2019-01-08T17:22:01.237Z,96.47
2019-01-08T17:24:37.775Z,96.93
2019-01-08T17:27:09.047Z,98.83
2019-01-08T17:29:40.587Z,103.80
2019-01-08T17:32:12.359Z,98.60
2019-01-08T17:34:43.848Z,96.97
2019-01-08T17:37:15.628Z,99.27
2019-01-08T17:39:47.228Z,103.33
2019-01-08T17:42:18.596Z,102.40
2019-01-08T17:44:50.024Z,99.50
2019-01-08T17:47:21.716Z,96.47
2019-01-08T17:49:53.200Z,92.40
2019-01-08T17:52:24.791Z,102.27
2019-01-08T17:54:56.166Z,94.67
2019-01-08T17:57:27.577Z,100.17
2019-01-08T17:59:58.977Z,98.60
2019-01-08T18:02:30.444Z,102.77
2019-01-08T18:05:01.889Z,100.67
2019-01-08T18:07:33.535Z,88.00
2019-01-08T18:10:05.986Z,93.07
2019-01-08T18:12:37.381Z,97.33
2019-01-08T18:15:09.132Z,89.57
2019-01-08T18:17:40.555Z,96.10
2019-01-08T18:20:12.470Z,88.33
2019-01-08T18:22:44.754Z,82.43
2019-01-08T18:25:16.394Z,84.77
2019-01-08T18:27:48.635Z,92.17
2019-01-08T18:30:20.692Z,86.93
2019-01-08T18:32:52.557Z,80.93
2019-01-08T18:35:24.368Z,92.77
2019-01-08T18:37:56.112Z,87.47
2019-01-08T18:40:27.575Z,91.03
2019-01-08T18:43:04.464Z,86.17
2019-01-08T18:45:36.167Z,94.57
2019-01-08T18:48:09.955Z,76.13
2019-01-08T18:50:41.173Z,83.43
2019-01-08T18:53:12.938Z,84.67
2019-01-08T18:55:44.483Z,82.10
2019-01-08T18:58:16.842Z,82.23
2019-01-08T19:00:48.496Z,87.57
2019-01-08T19:03:20.166Z,76.63
2019-01-08T19:05:51.813Z,76.87
2019-01-08T19:08:24.596Z,71.97
2019-01-08T19:10:57.148Z,74.13
2019-01-08T19:13:29.264Z,75.93
2019-01-08T19:16:00.695Z,76.60
2019-01-08T19:18:32.204Z,83.47
2019-01-08T19:21:03.820Z,79.47
2019-01-08T19:23:35.660Z,76.87
2019-01-08T19:26:07.256Z,68.27
2019-01-08T19:28:38.989Z,72.80
2019-01-08T19:31:10.302Z,74.00
2019-01-08T19:33:42.012Z,66.53
2019-01-08T19:36:14.193Z,62.30
2019-01-08T19:38:45.784Z,64.90
2019-01-08T19:41:17.476Z,68.73
2019-01-08T19:43:48.901Z,68.00
2019-01-08T19:46:20.565Z,67.73
2019-01-08T19:48:53.216Z,66.23
2019-01-08T19:51:24.454Z,74.37
2019-01-08T19:54:01.112Z,66.03
2019-01-08T19:56:32.872Z,66.90
2019-01-08T19:59:04.587Z,72.40
2019-01-08T20:01:37.377Z,70.30
2019-01-08T20:04:17.325Z,73.97
2019-01-08T20:06:41.845Z,69.80
2019-01-08T20:09:13.894Z,70.40
2019-01-08T20:11:45.943Z,71.77
2019-01-08T20:14:19.943Z,69.27
2019-01-08T20:16:51.592Z,69.30
2019-01-08T20:19:23.210Z,80.83
2019-01-08T20:21:55.233Z,74.27
2019-01-08T20:24:26.934Z,73.43
2019-01-08T20:26:58.379Z,72.03
2019-01-08T20:29:30.001Z,74.60
2019-01-08T20:32:01.751Z,73.90
2019-01-08T20:34:34.745Z,77.77
2019-01-08T20:37:06.549Z,85.50
2019-01-08T20:39:38.367Z,83.27
2019-01-08T20:42:10.004Z,81.37
2019-01-08T20:44:42.667Z,70.27
2019-01-08T20:47:14.515Z,75.60
2019-01-08T20:49:46.139Z,81.00
2019-01-08T20:52:17.555Z,71.30
2019-01-08T20:54:49.199Z,80.33
2019-01-08T20:57:20.977Z,81.33
2019-01-08T20:59:52.735Z,73.93
2019-01-08T21:02:24.365Z,81.00
2019-01-08T21:04:55.902Z,85.73
2019-01-08T21:07:28.641Z,82.00
2019-01-08T21:10:00.341Z,75.43
2019-01-08T21:12:33.689Z,73.20
2019-01-08T21:15:05.558Z,77.27
2019-01-08T21:17:37.019Z,78.23
2019-01-08T21:20:08.722Z,87.30
2019-01-08T21:22:40.972Z,83.13
2019-01-08T21:25:12.500Z,80.47
2019-01-08T21:27:44.086Z,77.93
2019-01-08T21:30:15.654Z,80.20
2019-01-08T21:32:47.210Z,81.57
2019-01-08T21:35:18.707Z,77.93
2019-01-08T21:37:51.489Z,82.77
2019-01-08T21:40:23.050Z,77.77
2019-01-08T21:42:59.636Z,84.57
2019-01-08T21:45:31.431Z,85.10
2019-01-08T21:48:03.238Z,98.73
2019-01-08T21:50:35.535Z,80.53
2019-01-08T21:53:07.893Z,86.20
2019-01-08T21:55:39.361Z,76.47
2019-01-08T21:58:10.914Z,76.83
2019-01-08T22:00:42.338Z,81.27
2019-01-08T22:03:14.952Z,75.67
2019-01-08T22:05:46.544Z,73.10
2019-01-08T22:08:18.035Z,76.57
2019-01-08T22:10:49.986Z,79.17
2019-01-08T22:13:29.544Z,72.80
2019-01-08T22:16:01.562Z,69.07
2019-01-08T22:18:32.978Z,77.43
2019-01-08T22:21:04.633Z,83.97
2019-01-08T22:23:36.078Z,77.70
2019-01-08T22:26:07.560Z,75.97
2019-01-08T22:28:39.292Z,70.47
2019-01-08T22:31:10.963Z,80.73
2019-01-08T22:33:42.595Z,70.97
2019-01-08T22:36:14.469Z,75.30
2019-01-08T22:38:46.351Z,74.80
2019-01-08T22:41:18.383Z,73.73
2019-01-08T22:43:49.930Z,72.70
2019-01-08T22:46:21.684Z,71.53
2019-01-08T22:48:53.460Z,80.40
2019-01-08T22:51:24.807Z,71.10
2019-01-08T22:54:01.282Z,74.57
2019-01-08T22:56:32.866Z,74.77
2019-01-08T22:59:04.546Z,71.23
2019-01-08T23:01:38.842Z,75.60
2019-01-08T23:04:12.742Z,68.17
2019-01-08T23:06:44.579Z,77.60
2019-01-08T23:09:16.386Z,77.73
2019-01-08T23:11:48.035Z,71.70
2019-01-08T23:14:19.785Z,73.70
2019-01-08T23:16:51.556Z,76.03
2019-01-08T23:19:22.941Z,72.17
2019-01-08T23:21:54.896Z,76.23
2019-01-08T23:24:27.057Z,74.63
2019-01-08T23:26:58.829Z,77.07
2019-01-08T23:29:30.164Z,71.00
2019-01-08T23:32:01.700Z,71.57
2019-01-08T23:34:33.075Z,67.57
2019-01-08T23:37:04.628Z,72.43
2019-01-08T23:39:36.188Z,66.17
2019-01-08T23:42:07.672Z,69.23
2019-01-08T23:44:39.124Z,70.83
2019-01-08T23:47:10.716Z,73.90
2019-01-08T23:49:42.650Z,74.40
2019-01-08T23:52:23.399Z,69.13
2019-01-08T23:54:56.268Z,77.53
2019-01-08T23:57:29.563Z,73.50
